Flight Track Log - Related Links

Times and Time Zones

All times are in EST time to prevent confusion due to time zone crossing. See the FIN666 flight status page for this flight to view local times or setup timezone preferences in your user account.

Time Position Orientation Groundspeed Altitude Reporting Facility
EST Latitude Longitude Course Direction KTS MPH feet Rate Location/Type
Fri 07:21:00 AM 55.9164 13.2747 49° Northeast  Level Estimated
Fri 07:22:00 AM 55.9905 13.4309 50° Northeast  Level Estimated
Fri 07:23:00 AM 56.0634 13.5855 50° Northeast  Level Estimated
Fri 07:24:00 AM 56.1361 13.7406 50° Northeast  Level Estimated
Fri 07:25:00 AM 56.2085 13.8964 50° Northeast  Level Estimated
Fri 07:26:00 AM 56.2808 14.0527 50° Northeast  Level Estimated
Fri 07:27:00 AM 56.3530 14.2096 50° Northeast  Level Estimated
Fri 07:28:00 AM 56.4249 14.3671 50° Northeast  Level Estimated
Fri 07:29:00 AM 56.4966 14.5253 51° Northeast  Level Estimated
Fri 07:30:00 AM 56.5681 14.6840 51° Northeast  Level Estimated
Fri 07:31:00 AM 56.6394 14.8433 51° Northeast  Level Estimated
Fri 07:32:00 AM 56.7104 15.0032 51° Northeast  Level Estimated
Fri 07:33:00 AM 56.7813 15.1637 51° Northeast  Level Estimated
Fri 07:34:00 AM 56.8520 15.3248 51° Northeast  Level Estimated
Fri 07:35:00 AM 56.9225 15.4865 51° Northeast  Level Estimated
Fri 07:36:00 AM 56.9927 15.6489 51° Northeast  Level Estimated
Fri 07:37:00 AM 57.0628 15.8118 52° Northeast  Level Estimated
Fri 07:38:00 AM 57.1326 15.9754 52° Northeast  Level Estimated
Fri 07:39:00 AM 57.2023 16.1396 52° Northeast  Level Estimated
Fri 07:40:00 AM 57.2717 16.3044 52° Northeast  Level Estimated
Fri 07:41:00 AM 57.3409 16.4698 52° Northeast  Level Estimated
Fri 07:42:00 AM 57.4099 16.6359 52° Northeast  Level Estimated
Fri 07:43:00 AM 57.4786 16.8025 52° Northeast  Level Estimated
Fri 07:44:00 AM 57.5471 16.9699 53° Northeast  Level Estimated
Fri 07:45:00 AM 57.6155 17.1378 53° Northeast  Level Estimated
Fri 07:46:00 AM 57.6836 17.3063 53° Northeast  Level Estimated
Fri 07:47:00 AM 57.7514 17.4755 53° Northeast  Level Estimated
Fri 07:48:00 AM 57.8191 17.6454 53° Northeast  Level Estimated
Fri 07:49:00 AM 57.8865 17.8158 53° Northeast  Level Estimated
Fri 07:50:00 AM 57.9537 17.9869 53° Northeast  Level Estimated
Fri 07:51:00 AM 58.0206 18.1587 54° Northeast  Level Estimated
Fri 07:52:00 AM 58.0873 18.3311 54° Northeast  Level Estimated
Fri 07:53:00 AM 58.1538 18.5041 54° Northeast  Level Estimated
Fri 07:54:00 AM 58.2201 18.6778 54° Northeast  Level Estimated
Fri 07:55:00 AM 58.2861 18.8521 54° Northeast  Level Estimated
Fri 07:56:00 AM 58.3519 19.0271 54° Northeast  Level Estimated
Fri 07:57:00 AM 58.4174 19.2028 54° Northeast  Level Estimated
Fri 07:58:00 AM 58.4827 19.3791 55° Northeast  Level Estimated
Fri 07:59:00 AM 58.5478 19.5560 55° Northeast  Level Estimated
Fri 08:00:00 AM 58.6126 19.7336 55° Northeast  Level Estimated
Fri 08:01:00 AM 58.6771 19.9119 55° Northeast  Level Estimated
Fri 08:02:00 AM 58.7415 20.0908 55° Northeast  Level Estimated
Fri 08:03:00 AM 58.8055 20.2704 55° Northeast  Level Estimated
Fri 08:04:00 AM 58.8693 20.4506 56° Northeast  Level Estimated
Fri 08:05:00 AM 58.9329 20.6315 56° Northeast  Level Estimated
Fri 08:06:00 AM 58.9962 20.8131 56° Northeast  Level Estimated
Fri 08:07:00 AM 59.0593 20.9953 56° Northeast  Level Estimated
Fri 08:08:00 AM 59.1221 21.1783 56° Northeast  Level Estimated
Fri 08:09:00 AM 59.1846 21.3618 56° Northeast  Level Estimated
Fri 08:10:00 AM 59.2469 21.5461 56° Northeast  Level Estimated
Fri 08:11:00 AM 59.3089 21.7310 57° Northeast  Level Estimated
Fri 08:12:00 AM 59.3707 21.9166 57° Northeast  Level Estimated
Fri 08:13:00 AM 59.4322 22.1029 57° Northeast  Level Estimated
Fri 08:14:00 AM 59.4934 22.2899 57° Northeast  Level Estimated
Fri 08:15:00 AM 59.5544 22.4775 57° Northeast  Level Estimated
Fri 08:16:00 AM 59.6151 22.6658 57° Northeast  Level Estimated
Fri 08:17:00 AM 59.6755 22.8548 58° Northeast  Level Estimated
Fri 08:18:00 AM 59.7356 23.0445 58° Northeast  Level Estimated
Fri 08:19:00 AM 59.7955 23.2348 58° Northeast  Level Estimated
Fri 08:20:00 AM 59.8551 23.4259 58° Northeast  Level Estimated
Fri 08:21:00 AM 59.9144 23.6176 58° Northeast  Level Estimated
Fri 08:22:00 AM 59.9734 23.8100 58° Northeast  Level Estimated
Fri 08:23:00 AM 60.0322 24.0031 59° Northeast  Level Estimated
Fri 08:24:00 AM 60.0907 24.1969 59° Northeast  Level Estimated
Fri 08:25:00 AM 60.1489 24.3913 59° Northeast  Level Estimated
Fri 08:26:00 AM 60.2068 24.5865 59° Northeast  Level Estimated
Fri 08:27:00 AM 60.2644 24.7823 59° Northeast  Level Estimated
Fri 08:28:00 AM 60.3172 24.9633 59° Northeast  Level Estimated
Fri 08:29:00 AM 60.3172 24.9633 37° Northeast  Level Estimated
Fri 08:30:00 AM 60.3172 24.9633 37° Northeast  Level Estimated
Fri 08:31:00 AM 60.3172 24.9633 37° Northeast  Level Estimated
Fri 08:32:00 AM 60.3172 24.9633 37° Northeast  Level Estimated
Fri 08:33:00 AM 60.3172 24.9633 37° Northeast  Level Estimated
Fri 08:34:00 AM 60.3172 24.9633 37° Northeast  Level Estimated
Fri 08:35:00 AM 60.3172 24.9633 37° Northeast  Level Estimated
Fri 08:36:00 AM 60.3172 24.9633 37° Northeast  Level Estimated
Fri 08:37:00 AM 60.3172 24.9633 37° Northeast  Level Estimated
Fri 08:38:00 AM 60.3172 24.9633 37° Northeast  Level Estimated
Fri 08:39:00 AM 60.3172 24.9633 37° Northeast  Level Estimated

Login

Don't have an account? Register now (free) for customized features, flight alerts, and more!